createdAt,value
2018-04-08T10:57:36.060Z,31.33
2018-04-08T11:00:14.926Z,32.47
2018-04-08T11:03:03.738Z,28.73
2018-04-08T11:05:35.572Z,32.63
2018-04-08T11:08:18.850Z,32.30
2018-04-08T11:11:08.921Z,31.77
2018-04-08T11:16:16.671Z,39.17
2018-04-08T11:19:10.510Z,37.87
2018-04-08T11:24:43.796Z,34.47
2018-04-08T11:27:21.896Z,44.40
2018-04-08T11:33:16.700Z,42.23
2018-04-08T11:35:44.256Z,44.43
2018-04-08T11:41:39.906Z,40.10
2018-04-08T11:44:42.101Z,40.00
2018-04-08T11:50:32.287Z,38.40
2018-04-08T11:56:03.859Z,34.47
2018-04-08T11:58:54.425Z,37.43
2018-04-08T12:01:21.953Z,36.40
2018-04-08T12:03:49.480Z,36.03
2018-04-08T12:06:31.666Z,32.87
2018-04-08T12:08:59.599Z,36.47
2018-04-08T12:11:27.145Z,36.87
2018-04-08T12:13:54.687Z,37.33
2018-04-08T12:16:23.825Z,30.93
2018-04-08T12:18:53.065Z,32.57
2018-04-08T12:21:22.241Z,36.60
2018-04-08T12:23:50.503Z,37.07
2018-04-08T12:29:08.155Z,38.87
2018-04-08T12:31:36.565Z,37.40
2018-04-08T12:34:06.189Z,40.70
2018-04-08T12:36:58.109Z,40.73
2018-04-08T12:39:36.531Z,40.23
2018-04-08T12:45:08.781Z,40.97
2018-04-08T12:47:37.250Z,40.63
2018-04-08T12:50:14.141Z,38.90
2018-04-08T12:56:02.126Z,39.67
2018-04-08T12:58:51.862Z,39.30
2018-04-08T13:04:36.362Z,39.50
2018-04-08T13:07:31.329Z,36.53
2018-04-08T13:16:25.281Z,38.03
2018-04-08T13:28:02.413Z,38.53
2018-04-08T13:30:30.917Z,38.03
2018-04-08T13:33:01.055Z,35.00
2018-04-08T13:35:36.614Z,40.23
2018-04-08T13:38:18.238Z,40.20
2018-04-08T13:40:49.417Z,42.17
2018-04-08T13:46:00.439Z,45.70
2018-04-08T13:48:37.429Z,38.50
2018-04-08T13:51:05.768Z,39.53
2018-04-08T13:53:34.122Z,38.30
2018-04-08T13:56:17.241Z,39.23
2018-04-08T13:58:44.754Z,36.00
2018-04-08T14:01:12.395Z,37.90
2018-04-08T14:03:39.935Z,37.20
2018-04-08T14:06:07.510Z,33.20
2018-04-08T14:08:35.066Z,36.73
2018-04-08T14:11:02.597Z,39.50
2018-04-08T14:13:32.306Z,33.53
2018-04-08T14:16:28.783Z,36.67
2018-04-08T14:18:57.750Z,30.17
2018-04-08T14:21:28.399Z,34.27
2018-04-08T14:23:58.185Z,33.20
2018-04-08T14:26:29.312Z,34.20
2018-04-08T14:28:58.058Z,36.33
2018-04-08T14:31:34.284Z,33.53
2018-04-08T14:34:02.057Z,31.30
2018-04-08T14:36:31.258Z,31.07
2018-04-08T14:38:59.744Z,37.57
2018-04-08T14:44:21.266Z,35.10
2018-04-08T14:46:48.785Z,36.60
2018-04-08T14:49:16.319Z,31.33
2018-04-08T14:51:43.855Z,35.90
2018-04-08T14:54:12.190Z,37.57
2018-04-08T14:56:41.455Z,39.17
2018-04-08T14:59:10.993Z,31.57
2018-04-08T15:01:46.662Z,35.10
2018-04-08T15:04:09.255Z,35.90
2018-04-08T15:06:44.901Z,37.47
2018-04-08T15:09:12.580Z,32.83
2018-04-08T15:11:40.169Z,33.30
2018-04-08T15:14:21.218Z,38.17
2018-04-08T15:23:21.528Z,39.70
2018-04-08T15:26:05.414Z,74.23
2018-04-08T15:28:34.218Z,52.30
2018-04-08T15:31:05.534Z,45.97
2018-04-08T15:33:51.147Z,48.70
2018-04-08T15:36:46.117Z,38.33
2018-04-08T18:30:05.123Z,63.60
2018-04-08T18:32:53.098Z,62.20
2018-04-08T18:38:46.504Z,61.80
2018-04-08T18:53:47.791Z,59.40
2018-04-08T18:56:36.930Z,67.43
2018-04-08T19:11:21.214Z,64.20
2018-04-08T19:14:12.242Z,66.57
2018-04-08T19:16:59.173Z,60.10
2018-04-08T19:22:35.745Z,64.90
2018-04-08T19:25:16.494Z,62.17
2018-04-08T19:31:05.614Z,63.93
2018-04-08T19:36:42.401Z,63.87
2018-04-08T19:39:30.739Z,70.83
2018-04-08T19:42:17.832Z,74.57
2018-04-08T19:44:58.079Z,70.70
2018-04-08T19:47:38.771Z,65.70
2018-04-08T19:53:11.655Z,66.07
2018-04-08T19:55:52.416Z,63.27
2018-04-08T19:58:39.258Z,62.53
2018-04-08T20:04:13.692Z,69.07
2018-04-08T20:06:54.741Z,69.67
2018-04-08T20:09:36.648Z,70.83
2018-04-08T20:12:19.914Z,64.83
2018-04-08T20:15:00.605Z,69.17
2018-04-08T20:17:42.160Z,65.33
2018-04-08T20:20:23.152Z,78.27
2018-04-08T20:23:04.131Z,82.33
2018-04-08T20:25:50.621Z,72.20
2018-04-08T20:28:36.824Z,58.53
2018-04-08T20:31:18.308Z,77.80
2018-04-08T20:33:59.862Z,82.13
2018-04-08T20:36:41.919Z,79.67
2018-04-08T20:39:24.215Z,77.90
2018-04-08T20:42:07.022Z,76.60
2018-04-08T20:44:47.849Z,74.17
2018-04-08T20:47:28.374Z,77.97
2018-04-08T20:50:10.041Z,82.77
2018-04-08T20:52:53.149Z,75.53
2018-04-08T20:55:37.419Z,64.30
2018-04-08T20:58:19.967Z,97.77
2018-04-08T21:01:00.814Z,113.93
2018-04-08T21:03:43.478Z,114.00
2018-04-08T21:06:25.837Z,103.87
2018-04-08T21:09:07.846Z,83.90
2018-04-08T21:11:50.669Z,66.17
2018-04-08T21:14:33.925Z,90.20
2018-04-08T21:17:15.524Z,74.00
2018-04-08T21:20:00.865Z,72.03
2018-04-08T21:22:40.927Z,63.70
2018-04-08T21:25:22.841Z,83.00
2018-04-08T21:28:04.333Z,75.53
2018-04-08T21:33:36.075Z,77.23
2018-04-08T21:36:16.437Z,76.43
2018-04-08T21:39:00.919Z,83.87
2018-04-08T21:41:42.677Z,73.80
2018-04-08T21:44:24.376Z,75.70
2018-04-08T21:47:05.838Z,77.13
2018-04-08T21:49:47.132Z,80.57
2018-04-08T21:52:30.153Z,78.00
2018-04-08T21:55:12.142Z,71.47
2018-04-08T21:57:54.292Z,86.93
2018-04-08T22:00:38.848Z,68.47
2018-04-08T22:03:21.062Z,74.50
2018-04-08T22:06:02.985Z,76.57
2018-04-08T22:08:44.148Z,75.50
2018-04-08T22:11:26.400Z,68.87
2018-04-08T22:14:06.302Z,64.90
2018-04-08T22:16:51.551Z,79.43
2018-04-08T22:19:32.784Z,76.63
2018-04-08T22:22:14.348Z,67.27
2018-04-08T22:24:55.552Z,65.07
2018-04-08T22:27:39.128Z,63.63
2018-04-08T22:30:19.992Z,52.83
2018-04-08T22:33:01.480Z,73.27
2018-04-08T22:35:42.656Z,81.70
2018-04-08T22:38:23.775Z,70.83
2018-04-08T22:41:04.468Z,73.77
2018-04-08T22:43:45.123Z,67.00
2018-04-08T22:46:25.632Z,63.20
2018-04-08T22:49:11.662Z,67.20
2018-04-08T22:51:53.000Z,63.53
2018-04-08T22:54:34.018Z,68.03
2018-04-08T22:57:17.111Z,88.33
2018-04-08T22:59:58.336Z,101.40
2018-04-08T23:02:38.343Z,89.80
2018-04-08T23:05:06.659Z,84.20
2018-04-08T23:07:50.067Z,86.00
2018-04-08T23:10:30.738Z,92.07
2018-04-08T23:13:11.388Z,98.63
2018-04-08T23:15:53.423Z,100.23
2018-04-08T23:18:36.845Z,100.47
2018-04-08T23:21:17.338Z,89.73
2018-04-08T23:23:59.805Z,108.57
2018-04-08T23:26:42.925Z,125.77
2018-04-08T23:32:23.281Z,111.70
2018-04-08T23:35:06.972Z,95.57
2018-04-08T23:37:48.004Z,88.70
2018-04-08T23:40:29.341Z,87.20
2018-04-08T23:43:10.476Z,81.73
2018-04-08T23:45:51.751Z,103.87
2018-04-08T23:48:33.885Z,89.90
2018-04-08T23:51:14.712Z,80.87
2018-04-08T23:53:54.170Z,92.60
2018-04-08T23:56:36.697Z,89.67
2018-04-08T23:59:17.221Z,79.50
